sensor_id;sensor_type;location;lat;lon;timestamp;temperature;humidity
37460;DHT22;23318;50.966;5.284;2023-10-31T00:00:38;10.20;99.90
37460;DHT22;23318;50.966;5.284;2023-10-31T00:03:04;10.30;99.90
37460;DHT22;23318;50.966;5.284;2023-10-31T00:05:30;10.20;99.90
37460;DHT22;23318;50.966;5.284;2023-10-31T00:07:55;10.20;99.90
37460;DHT22;23318;50.966;5.284;2023-10-31T00:10:21;10.20;99.90
37460;DHT22;23318;50.966;5.284;2023-10-31T00:12:47;10.20;99.90
37460;DHT22;23318;50.966;5.284;2023-10-31T00:15:13;10.20;99.90
37460;DHT22;23318;50.966;5.284;2023-10-31T00:17:39;10.10;99.90
37460;DHT22;23318;50.966;5.284;2023-10-31T00:20:06;10.10;99.90
37460;DHT22;23318;50.966;5.284;2023-10-31T00:22:32;10.10;99.90
37460;DHT22;23318;50.966;5.284;2023-10-31T00:24:57;10.10;99.90
37460;DHT22;23318;50.966;5.284;2023-10-31T00:27:23;10.10;99.90
37460;DHT22;23318;50.966;5.284;2023-10-31T00:29:49;10.00;99.90
37460;DHT22;23318;50.966;5.284;2023-10-31T00:32:14;10.00;99.90
37460;DHT22;23318;50.966;5.284;2023-10-31T00:34:40;10.00;99.90
37460;DHT22;23318;50.966;5.284;2023-10-31T00:37:06;10.00;99.90
37460;DHT22;23318;50.966;5.284;2023-10-31T00:39:31;10.00;99.90
37460;DHT22;23318;50.966;5.284;2023-10-31T00:41:59;10.00;99.90
37460;DHT22;23318;50.966;5.284;2023-10-31T00:44:25;10.00;99.90
37460;DHT22;23318;50.966;5.284;2023-10-31T00:46:50;10.00;99.90
37460;DHT22;23318;50.966;5.284;2023-10-31T00:49:16;10.00;99.90
37460;DHT22;23318;50.966;5.284;2023-10-31T00:51:42;10.00;99.90
37460;DHT22;23318;50.966;5.284;2023-10-31T00:54:08;10.00;99.90
37460;DHT22;23318;50.966;5.284;2023-10-31T00:56:33;10.10;99.90
37460;DHT22;23318;50.966;5.284;2023-10-31T00:59:00;10.10;99.90
37460;DHT22;23318;50.966;5.284;2023-10-31T01:01:27;10.10;99.90
37460;DHT22;23318;50.966;5.284;2023-10-31T01:03:52;10.20;99.90
37460;DHT22;23318;50.966;5.284;2023-10-31T01:06:18;10.10;99.90
37460;DHT22;23318;50.966;5.284;2023-10-31T01:08:44;10.10;99.90
37460;DHT22;23318;50.966;5.284;2023-10-31T01:11:09;10.10;99.90
37460;DHT22;23318;50.966;5.284;2023-10-31T01:13:35;10.10;99.90
37460;DHT22;23318;50.966;5.284;2023-10-31T01:16:00;10.10;99.90
37460;DHT22;23318;50.966;5.284;2023-10-31T01:18:26;10.10;99.90
37460;DHT22;23318;50.966;5.284;2023-10-31T01:20:52;10.20;99.90
37460;DHT22;23318;50.966;5.284;2023-10-31T01:23:17;10.10;99.90
37460;DHT22;23318;50.966;5.284;2023-10-31T01:25:43;10.20;99.90
37460;DHT22;23318;50.966;5.284;2023-10-31T01:28:09;10.20;99.90
37460;DHT22;23318;50.966;5.284;2023-10-31T01:30:35;10.20;99.90
37460;DHT22;23318;50.966;5.284;2023-10-31T01:33:01;10.20;99.90
37460;DHT22;23318;50.966;5.284;2023-10-31T01:35:26;10.20;99.90
37460;DHT22;23318;50.966;5.284;2023-10-31T01:37:52;10.20;99.90
37460;DHT22;23318;50.966;5.284;2023-10-31T01:40:18;10.20;99.90
37460;DHT22;23318;50.966;5.284;2023-10-31T01:42:43;10.20;99.90
37460;DHT22;23318;50.966;5.284;2023-10-31T01:45:09;10.20;99.90
37460;DHT22;23318;50.966;5.284;2023-10-31T01:47:35;10.20;99.90
37460;DHT22;23318;50.966;5.284;2023-10-31T01:50:01;10.20;99.90
37460;DHT22;23318;50.966;5.284;2023-10-31T01:52:27;10.30;99.90
37460;DHT22;23318;50.966;5.284;2023-10-31T01:54:54;10.20;99.90
37460;DHT22;23318;50.966;5.284;2023-10-31T01:57:21;10.20;99.90
37460;DHT22;23318;50.966;5.284;2023-10-31T01:59:47;10.30;99.90
37460;DHT22;23318;50.966;5.284;2023-10-31T02:02:13;10.20;99.90
37460;DHT22;23318;50.966;5.284;2023-10-31T02:04:39;10.30;99.90
37460;DHT22;23318;50.966;5.284;2023-10-31T02:07:05;10.30;99.90
37460;DHT22;23318;50.966;5.284;2023-10-31T02:09:32;10.20;99.90
37460;DHT22;23318;50.966;5.284;2023-10-31T02:11:58;10.20;99.90
37460;DHT22;23318;50.966;5.284;2023-10-31T02:14:24;10.30;99.90
37460;DHT22;23318;50.966;5.284;2023-10-31T02:16:50;10.30;99.90
37460;DHT22;23318;50.966;5.284;2023-10-31T02:19:19;10.40;99.90
37460;DHT22;23318;50.966;5.284;2023-10-31T02:21:45;10.40;99.90
37460;DHT22;23318;50.966;5.284;2023-10-31T02:24:11;10.40;99.90
37460;DHT22;23318;50.966;5.284;2023-10-31T02:26:36;10.30;99.90
37460;DHT22;23318;50.966;5.284;2023-10-31T02:29:02;10.40;99.90
37460;DHT22;23318;50.966;5.284;2023-10-31T02:31:29;10.50;99.90
37460;DHT22;23318;50.966;5.284;2023-10-31T02:33:55;10.40;99.90
37460;DHT22;23318;50.966;5.284;2023-10-31T02:36:21;10.50;99.90
37460;DHT22;23318;50.966;5.284;2023-10-31T02:38:47;10.40;99.90
37460;DHT22;23318;50.966;5.284;2023-10-31T02:41:13;10.40;99.90
37460;DHT22;23318;50.966;5.284;2023-10-31T02:43:39;10.40;99.90
37460;DHT22;23318;50.966;5.284;2023-10-31T02:46:05;10.40;99.90
37460;DHT22;23318;50.966;5.284;2023-10-31T02:48:31;10.40;99.90
37460;DHT22;23318;50.966;5.284;2023-10-31T02:51:04;10.40;99.90
37460;DHT22;23318;50.966;5.284;2023-10-31T02:53:30;10.50;99.90
37460;DHT22;23318;50.966;5.284;2023-10-31T02:55:56;10.50;99.90
37460;DHT22;23318;50.966;5.284;2023-10-31T02:58:21;10.50;99.90
37460;DHT22;23318;50.966;5.284;2023-10-31T03:00:47;10.50;99.90
37460;DHT22;23318;50.966;5.284;2023-10-31T03:03:13;10.60;99.90
37460;DHT22;23318;50.966;5.284;2023-10-31T03:05:39;10.60;99.90
37460;DHT22;23318;50.966;5.284;2023-10-31T03:08:04;10.60;99.90
37460;DHT22;23318;50.966;5.284;2023-10-31T03:10:30;10.60;99.90
37460;DHT22;23318;50.966;5.284;2023-10-31T03:12:56;10.60;99.90
37460;DHT22;23318;50.966;5.284;2023-10-31T03:15:21;10.60;99.90
37460;DHT22;23318;50.966;5.284;2023-10-31T03:17:47;10.60;99.90
37460;DHT22;23318;50.966;5.284;2023-10-31T03:20:13;10.60;99.90
37460;DHT22;23318;50.966;5.284;2023-10-31T03:22:38;10.60;99.90
37460;DHT22;23318;50.966;5.284;2023-10-31T03:25:04;10.60;99.90
37460;DHT22;23318;50.966;5.284;2023-10-31T03:27:30;10.60;99.90
37460;DHT22;23318;50.966;5.284;2023-10-31T03:29:56;10.60;99.90
37460;DHT22;23318;50.966;5.284;2023-10-31T03:32:21;10.60;99.90
37460;DHT22;23318;50.966;5.284;2023-10-31T03:34:47;10.60;99.90
37460;DHT22;23318;50.966;5.284;2023-10-31T03:37:13;10.60;99.90
37460;DHT22;23318;50.966;5.284;2023-10-31T03:39:38;10.50;99.90
37460;DHT22;23318;50.966;5.284;2023-10-31T03:42:04;10.50;99.90
37460;DHT22;23318;50.966;5.284;2023-10-31T03:44:30;10.50;99.90
37460;DHT22;23318;50.966;5.284;2023-10-31T03:46:56;10.50;99.90
37460;DHT22;23318;50.966;5.284;2023-10-31T03:49:22;10.50;99.90
37460;DHT22;23318;50.966;5.284;2023-10-31T03:51:47;10.50;99.90
37460;DHT22;23318;50.966;5.284;2023-10-31T03:54:13;10.50;99.90
37460;DHT22;23318;50.966;5.284;2023-10-31T03:56:40;10.50;99.90
37460;DHT22;23318;50.966;5.284;2023-10-31T03:59:06;10.40;99.90
37460;DHT22;23318;50.966;5.284;2023-10-31T04:01:32;10.50;99.90
37460;DHT22;23318;50.966;5.284;2023-10-31T04:03:57;10.60;99.90
37460;DHT22;23318;50.966;5.284;2023-10-31T04:06:23;10.50;99.90
37460;DHT22;23318;50.966;5.284;2023-10-31T04:08:48;10.50;99.90
37460;DHT22;23318;50.966;5.284;2023-10-31T04:11:14;10.40;99.90
37460;DHT22;23318;50.966;5.284;2023-10-31T04:13:40;10.40;99.90
37460;DHT22;23318;50.966;5.284;2023-10-31T04:16:06;10.40;99.90
37460;DHT22;23318;50.966;5.284;2023-10-31T04:18:31;10.40;99.90
37460;DHT22;23318;50.966;5.284;2023-10-31T04:20:57;10.50;99.90
37460;DHT22;23318;50.966;5.284;2023-10-31T04:23:23;10.40;99.90
37460;DHT22;23318;50.966;5.284;2023-10-31T04:25:49;10.40;99.90
37460;DHT22;23318;50.966;5.284;2023-10-31T04:28:16;10.40;99.90
37460;DHT22;23318;50.966;5.284;2023-10-31T04:30:41;10.30;99.90
37460;DHT22;23318;50.966;5.284;2023-10-31T04:33:07;10.20;99.90
37460;DHT22;23318;50.966;5.284;2023-10-31T04:35:33;10.20;99.90
37460;DHT22;23318;50.966;5.284;2023-10-31T04:37:58;10.10;99.90
37460;DHT22;23318;50.966;5.284;2023-10-31T04:40:24;10.00;99.90
37460;DHT22;23318;50.966;5.284;2023-10-31T04:42:50;10.10;99.90
37460;DHT22;23318;50.966;5.284;2023-10-31T04:45:15;10.00;99.90
37460;DHT22;23318;50.966;5.284;2023-10-31T04:47:41;9.90;99.90
37460;DHT22;23318;50.966;5.284;2023-10-31T04:50:08;9.90;99.90
37460;DHT22;23318;50.966;5.284;2023-10-31T04:52:33;9.90;99.90
37460;DHT22;23318;50.966;5.284;2023-10-31T04:54:59;9.90;99.90
37460;DHT22;23318;50.966;5.284;2023-10-31T04:57:24;9.80;99.90
37460;DHT22;23318;50.966;5.284;2023-10-31T04:59:50;9.80;99.90
37460;DHT22;23318;50.966;5.284;2023-10-31T05:02:16;9.70;99.90
37460;DHT22;23318;50.966;5.284;2023-10-31T05:04:42;9.70;99.90
37460;DHT22;23318;50.966;5.284;2023-10-31T05:07:08;9.60;99.90
37460;DHT22;23318;50.966;5.284;2023-10-31T05:09:33;9.60;99.90
37460;DHT22;23318;50.966;5.284;2023-10-31T05:11:59;9.60;99.90
37460;DHT22;23318;50.966;5.284;2023-10-31T05:14:26;9.60;99.90
37460;DHT22;23318;50.966;5.284;2023-10-31T05:16:51;9.60;99.90
37460;DHT22;23318;50.966;5.284;2023-10-31T05:19:17;9.60;99.90
37460;DHT22;23318;50.966;5.284;2023-10-31T05:21:42;9.50;99.90
37460;DHT22;23318;50.966;5.284;2023-10-31T05:24:08;9.50;99.90
37460;DHT22;23318;50.966;5.284;2023-10-31T05:26:34;9.40;99.90
37460;DHT22;23318;50.966;5.284;2023-10-31T05:28:59;9.40;99.90
37460;DHT22;23318;50.966;5.284;2023-10-31T05:31:25;9.30;99.90
37460;DHT22;23318;50.966;5.284;2023-10-31T05:33:52;9.30;99.90
37460;DHT22;23318;50.966;5.284;2023-10-31T05:36:25;9.30;99.90
37460;DHT22;23318;50.966;5.284;2023-10-31T05:38:50;9.40;99.90
37460;DHT22;23318;50.966;5.284;2023-10-31T05:41:16;9.30;99.90
37460;DHT22;23318;50.966;5.284;2023-10-31T05:43:42;9.30;99.90
37460;DHT22;23318;50.966;5.284;2023-10-31T05:46:08;9.30;99.90
37460;DHT22;23318;50.966;5.284;2023-10-31T05:48:40;9.40;99.90
37460;DHT22;23318;50.966;5.284;2023-10-31T05:51:17;9.30;99.90
37460;DHT22;23318;50.966;5.284;2023-10-31T05:53:45;9.30;99.90
37460;DHT22;23318;50.966;5.284;2023-10-31T05:56:12;9.30;99.90
37460;DHT22;23318;50.966;5.284;2023-10-31T05:58:39;9.40;99.90
37460;DHT22;23318;50.966;5.284;2023-10-31T06:01:05;9.40;99.90
37460;DHT22;23318;50.966;5.284;2023-10-31T06:03:31;9.30;99.90
37460;DHT22;23318;50.966;5.284;2023-10-31T06:05:57;9.40;99.90
37460;DHT22;23318;50.966;5.284;2023-10-31T06:08:23;9.40;99.90
37460;DHT22;23318;50.966;5.284;2023-10-31T06:10:50;9.40;99.90
37460;DHT22;23318;50.966;5.284;2023-10-31T06:13:16;9.30;99.90
37460;DHT22;23318;50.966;5.284;2023-10-31T06:15:42;9.30;99.90
37460;DHT22;23318;50.966;5.284;2023-10-31T06:18:08;9.30;99.90
37460;DHT22;23318;50.966;5.284;2023-10-31T06:20:33;9.30;99.90
37460;DHT22;23318;50.966;5.284;2023-10-31T06:23:00;9.50;99.90
37460;DHT22;23318;50.966;5.284;2023-10-31T06:25:29;9.40;99.90
37460;DHT22;23318;50.966;5.284;2023-10-31T06:27:55;9.50;99.90
37460;DHT22;23318;50.966;5.284;2023-10-31T06:30:20;9.40;99.90
37460;DHT22;23318;50.966;5.284;2023-10-31T06:32:46;9.40;99.90
37460;DHT22;23318;50.966;5.284;2023-10-31T06:35:12;9.60;99.90
37460;DHT22;23318;50.966;5.284;2023-10-31T06:37:37;9.60;99.90
37460;DHT22;23318;50.966;5.284;2023-10-31T06:40:04;9.60;99.90
37460;DHT22;23318;50.966;5.284;2023-10-31T06:42:30;9.50;99.90
37460;DHT22;23318;50.966;5.284;2023-10-31T06:44:56;9.60;99.90
37460;DHT22;23318;50.966;5.284;2023-10-31T06:47:21;9.40;99.90
37460;DHT22;23318;50.966;5.284;2023-10-31T06:49:47;9.40;99.90
37460;DHT22;23318;50.966;5.284;2023-10-31T06:52:13;9.30;99.90
37460;DHT22;23318;50.966;5.284;2023-10-31T06:54:38;9.30;99.90
37460;DHT22;23318;50.966;5.284;2023-10-31T06:57:04;9.20;99.90
37460;DHT22;23318;50.966;5.284;2023-10-31T06:59:30;9.20;99.90
37460;DHT22;23318;50.966;5.284;2023-10-31T07:01:55;9.40;99.90
37460;DHT22;23318;50.966;5.284;2023-10-31T07:04:21;9.30;99.90
37460;DHT22;23318;50.966;5.284;2023-10-31T07:06:47;9.30;99.90
37460;DHT22;23318;50.966;5.284;2023-10-31T07:09:12;9.40;99.90
37460;DHT22;23318;50.966;5.284;2023-10-31T07:11:38;9.40;99.90
37460;DHT22;23318;50.966;5.284;2023-10-31T07:14:04;9.40;99.90
37460;DHT22;23318;50.966;5.284;2023-10-31T07:16:32;9.40;99.90
37460;DHT22;23318;50.966;5.284;2023-10-31T07:18:58;9.40;99.90
37460;DHT22;23318;50.966;5.284;2023-10-31T07:21:23;9.50;99.90
37460;DHT22;23318;50.966;5.284;2023-10-31T07:23:49;9.60;99.90
37460;DHT22;23318;50.966;5.284;2023-10-31T07:26:16;9.60;99.90
37460;DHT22;23318;50.966;5.284;2023-10-31T07:28:41;9.50;99.90
37460;DHT22;23318;50.966;5.284;2023-10-31T07:31:07;9.60;99.90
37460;DHT22;23318;50.966;5.284;2023-10-31T07:33:33;9.60;99.90
37460;DHT22;23318;50.966;5.284;2023-10-31T07:35:58;9.70;99.90
37460;DHT22;23318;50.966;5.284;2023-10-31T07:38:24;9.70;99.90
37460;DHT22;23318;50.966;5.284;2023-10-31T07:40:50;9.80;99.90
37460;DHT22;23318;50.966;5.284;2023-10-31T07:43:15;9.90;99.90
37460;DHT22;23318;50.966;5.284;2023-10-31T07:45:41;9.90;99.90
37460;DHT22;23318;50.966;5.284;2023-10-31T07:48:08;10.00;99.90
37460;DHT22;23318;50.966;5.284;2023-10-31T07:50:34;10.00;99.90
37460;DHT22;23318;50.966;5.284;2023-10-31T07:53:00;10.10;99.90
37460;DHT22;23318;50.966;5.284;2023-10-31T07:55:25;10.10;99.90
37460;DHT22;23318;50.966;5.284;2023-10-31T07:57:51;10.20;99.90
37460;DHT22;23318;50.966;5.284;2023-10-31T08:00:17;10.30;99.90
37460;DHT22;23318;50.966;5.284;2023-10-31T08:02:42;10.30;99.90
37460;DHT22;23318;50.966;5.284;2023-10-31T08:05:10;10.40;99.90
37460;DHT22;23318;50.966;5.284;2023-10-31T08:07:36;10.30;99.90
37460;DHT22;23318;50.966;5.284;2023-10-31T08:10:02;10.40;99.90
37460;DHT22;23318;50.966;5.284;2023-10-31T08:12:29;10.40;99.90
37460;DHT22;23318;50.966;5.284;2023-10-31T08:14:55;10.40;99.90
37460;DHT22;23318;50.966;5.284;2023-10-31T08:17:20;10.50;99.90
37460;DHT22;23318;50.966;5.284;2023-10-31T08:19:46;10.50;99.90
37460;DHT22;23318;50.966;5.284;2023-10-31T08:22:13;10.60;99.90
37460;DHT22;23318;50.966;5.284;2023-10-31T08:24:38;10.70;99.90
37460;DHT22;23318;50.966;5.284;2023-10-31T08:27:05;10.80;99.90
37460;DHT22;23318;50.966;5.284;2023-10-31T08:29:31;10.90;99.90
37460;DHT22;23318;50.966;5.284;2023-10-31T08:31:57;10.90;99.90
37460;DHT22;23318;50.966;5.284;2023-10-31T08:34:22;11.10;99.90
37460;DHT22;23318;50.966;5.284;2023-10-31T08:36:48;11.20;99.90
37460;DHT22;23318;50.966;5.284;2023-10-31T08:39:14;11.40;99.90
37460;DHT22;23318;50.966;5.284;2023-10-31T08:41:56;11.40;99.90
37460;DHT22;23318;50.966;5.284;2023-10-31T08:44:22;11.30;99.90
37460;DHT22;23318;50.966;5.284;2023-10-31T08:46:48;11.30;99.90
37460;DHT22;23318;50.966;5.284;2023-10-31T08:49:15;11.30;99.90
37460;DHT22;23318;50.966;5.284;2023-10-31T08:51:41;11.30;99.90
37460;DHT22;23318;50.966;5.284;2023-10-31T08:54:07;11.30;99.90
37460;DHT22;23318;50.966;5.284;2023-10-31T08:56:32;11.40;99.90
37460;DHT22;23318;50.966;5.284;2023-10-31T08:58:58;11.50;99.90
37460;DHT22;23318;50.966;5.284;2023-10-31T09:01:24;11.50;99.90
37460;DHT22;23318;50.966;5.284;2023-10-31T09:03:50;11.50;99.90
37460;DHT22;23318;50.966;5.284;2023-10-31T09:06:16;11.60;99.90
37460;DHT22;23318;50.966;5.284;2023-10-31T09:08:41;11.30;99.90
37460;DHT22;23318;50.966;5.284;2023-10-31T09:11:07;11.20;99.90
37460;DHT22;23318;50.966;5.284;2023-10-31T09:13:33;11.40;99.90
37460;DHT22;23318;50.966;5.284;2023-10-31T09:15:59;11.30;99.90
37460;DHT22;23318;50.966;5.284;2023-10-31T09:18:24;11.30;99.90
37460;DHT22;23318;50.966;5.284;2023-10-31T09:20:50;11.50;99.90
37460;DHT22;23318;50.966;5.284;2023-10-31T09:23:16;11.70;99.90
37460;DHT22;23318;50.966;5.284;2023-10-31T09:25:45;12.00;99.90
37460;DHT22;23318;50.966;5.284;2023-10-31T09:28:11;12.00;99.90
37460;DHT22;23318;50.966;5.284;2023-10-31T09:30:37;11.80;99.90
37460;DHT22;23318;50.966;5.284;2023-10-31T09:33:03;11.70;99.90
37460;DHT22;23318;50.966;5.284;2023-10-31T09:35:28;11.70;99.90
37460;DHT22;23318;50.966;5.284;2023-10-31T09:37:55;11.80;99.90
37460;DHT22;23318;50.966;5.284;2023-10-31T09:40:21;11.60;99.90
37460;DHT22;23318;50.966;5.284;2023-10-31T09:42:47;11.50;99.90
37460;DHT22;23318;50.966;5.284;2023-10-31T09:45:13;11.60;99.90
37460;DHT22;23318;50.966;5.284;2023-10-31T09:47:40;11.60;99.90
37460;DHT22;23318;50.966;5.284;2023-10-31T09:50:07;11.80;99.90
37460;DHT22;23318;50.966;5.284;2023-10-31T09:52:36;12.20;99.90
37460;DHT22;23318;50.966;5.284;2023-10-31T09:55:02;12.40;99.90
37460;DHT22;23318;50.966;5.284;2023-10-31T09:57:28;12.60;99.90
37460;DHT22;23318;50.966;5.284;2023-10-31T09:59:54;12.60;99.90
37460;DHT22;23318;50.966;5.284;2023-10-31T10:02:20;12.30;99.90
37460;DHT22;23318;50.966;5.284;2023-10-31T10:04:47;12.40;99.90
37460;DHT22;23318;50.966;5.284;2023-10-31T10:07:15;12.40;99.90
37460;DHT22;23318;50.966;5.284;2023-10-31T10:09:45;12.40;99.90
37460;DHT22;23318;50.966;5.284;2023-10-31T10:12:16;12.40;99.90
37460;DHT22;23318;50.966;5.284;2023-10-31T10:14:44;12.10;99.90
37460;DHT22;23318;50.966;5.284;2023-10-31T10:17:16;12.10;99.90
37460;DHT22;23318;50.966;5.284;2023-10-31T10:19:42;12.30;99.90
37460;DHT22;23318;50.966;5.284;2023-10-31T10:22:07;12.40;99.90
37460;DHT22;23318;50.966;5.284;2023-10-31T10:24:33;12.30;99.90
37460;DHT22;23318;50.966;5.284;2023-10-31T10:26:59;12.50;99.90
37460;DHT22;23318;50.966;5.284;2023-10-31T10:29:25;12.40;99.90
37460;DHT22;23318;50.966;5.284;2023-10-31T10:31:51;12.40;99.90
37460;DHT22;23318;50.966;5.284;2023-10-31T10:34:17;12.80;99.90
37460;DHT22;23318;50.966;5.284;2023-10-31T10:36:48;12.90;99.90
37460;DHT22;23318;50.966;5.284;2023-10-31T10:39:21;13.10;99.90
37460;DHT22;23318;50.966;5.284;2023-10-31T10:41:52;13.00;99.90
37460;DHT22;23318;50.966;5.284;2023-10-31T10:44:25;12.60;99.90
37460;DHT22;23318;50.966;5.284;2023-10-31T10:46:55;12.80;99.90
37460;DHT22;23318;50.966;5.284;2023-10-31T10:49:24;13.10;99.90
37460;DHT22;23318;50.966;5.284;2023-10-31T10:52:01;12.90;99.90
37460;DHT22;23318;50.966;5.284;2023-10-31T10:54:53;12.80;99.90
37460;DHT22;23318;50.966;5.284;2023-10-31T10:57:23;12.80;99.90
37460;DHT22;23318;50.966;5.284;2023-10-31T10:59:51;12.60;99.90
37460;DHT22;23318;50.966;5.284;2023-10-31T11:02:20;12.40;99.90
37460;DHT22;23318;50.966;5.284;2023-10-31T11:04:47;12.50;99.90
37460;DHT22;23318;50.966;5.284;2023-10-31T11:07:13;12.50;99.90
37460;DHT22;23318;50.966;5.284;2023-10-31T11:09:39;12.70;99.90
37460;DHT22;23318;50.966;5.284;2023-10-31T11:12:07;13.10;99.90
37460;DHT22;23318;50.966;5.284;2023-10-31T11:14:34;13.20;99.90
37460;DHT22;23318;50.966;5.284;2023-10-31T11:17:06;13.40;99.90
37460;DHT22;23318;50.966;5.284;2023-10-31T11:19:35;13.80;99.90
37460;DHT22;23318;50.966;5.284;2023-10-31T11:22:02;13.90;99.90
37460;DHT22;23318;50.966;5.284;2023-10-31T11:24:32;14.90;99.90
37460;DHT22;23318;50.966;5.284;2023-10-31T11:27:01;15.50;99.90
37460;DHT22;23318;50.966;5.284;2023-10-31T11:29:27;15.00;99.90
37460;DHT22;23318;50.966;5.284;2023-10-31T11:31:56;14.60;99.90
37460;DHT22;23318;50.966;5.284;2023-10-31T11:34:23;14.20;99.90
37460;DHT22;23318;50.966;5.284;2023-10-31T11:36:50;13.80;99.90
37460;DHT22;23318;50.966;5.284;2023-10-31T11:39:19;13.60;99.90
37460;DHT22;23318;50.966;5.284;2023-10-31T11:41:50;13.80;99.90
37460;DHT22;23318;50.966;5.284;2023-10-31T11:44:16;14.20;99.90
37460;DHT22;23318;50.966;5.284;2023-10-31T11:46:42;14.60;99.90
37460;DHT22;23318;50.966;5.284;2023-10-31T11:49:08;14.70;99.90
37460;DHT22;23318;50.966;5.284;2023-10-31T11:51:34;14.40;99.90
37460;DHT22;23318;50.966;5.284;2023-10-31T11:54:02;13.60;99.90
37460;DHT22;23318;50.966;5.284;2023-10-31T11:56:28;13.30;99.90
37460;DHT22;23318;50.966;5.284;2023-10-31T11:59:06;13.20;99.90
37460;DHT22;23318;50.966;5.284;2023-10-31T12:01:47;13.00;99.90
37460;DHT22;23318;50.966;5.284;2023-10-31T12:04:22;13.20;99.90
37460;DHT22;23318;50.966;5.284;2023-10-31T12:07:00;13.10;99.90
37460;DHT22;23318;50.966;5.284;2023-10-31T12:09:26;13.90;99.90
37460;DHT22;23318;50.966;5.284;2023-10-31T12:11:53;14.50;99.90
37460;DHT22;23318;50.966;5.284;2023-10-31T12:14:18;15.10;99.90
37460;DHT22;23318;50.966;5.284;2023-10-31T12:16:46;14.70;99.90
37460;DHT22;23318;50.966;5.284;2023-10-31T12:19:11;14.20;99.90
37460;DHT22;23318;50.966;5.284;2023-10-31T12:21:43;14.20;99.90
37460;DHT22;23318;50.966;5.284;2023-10-31T12:24:11;14.20;99.90
37460;DHT22;23318;50.966;5.284;2023-10-31T12:26:37;14.10;99.90
37460;DHT22;23318;50.966;5.284;2023-10-31T12:29:20;13.70;99.90
37460;DHT22;23318;50.966;5.284;2023-10-31T12:31:53;13.40;99.90
37460;DHT22;23318;50.966;5.284;2023-10-31T12:34:21;13.10;99.90
37460;DHT22;23318;50.966;5.284;2023-10-31T12:36:48;13.30;99.90
37460;DHT22;23318;50.966;5.284;2023-10-31T12:39:15;13.50;99.90
37460;DHT22;23318;50.966;5.284;2023-10-31T12:41:42;13.40;99.90
37460;DHT22;23318;50.966;5.284;2023-10-31T12:44:09;13.30;99.90
37460;DHT22;23318;50.966;5.284;2023-10-31T12:46:41;13.10;99.90
37460;DHT22;23318;50.966;5.284;2023-10-31T12:49:17;13.20;99.90
37460;DHT22;23318;50.966;5.284;2023-10-31T12:52:03;13.20;99.90
37460;DHT22;23318;50.966;5.284;2023-10-31T12:54:36;13.00;99.90
37460;DHT22;23318;50.966;5.284;2023-10-31T12:57:03;12.90;99.90
37460;DHT22;23318;50.966;5.284;2023-10-31T12:59:30;12.80;99.90
37460;DHT22;23318;50.966;5.284;2023-10-31T13:01:55;12.80;99.90
37460;DHT22;23318;50.966;5.284;2023-10-31T13:04:29;13.00;99.90
37460;DHT22;23318;50.966;5.284;2023-10-31T13:07:03;12.80;99.90
37460;DHT22;23318;50.966;5.284;2023-10-31T13:09:35;12.70;99.90
37460;DHT22;23318;50.966;5.284;2023-10-31T13:12:05;12.70;99.90
37460;DHT22;23318;50.966;5.284;2023-10-31T13:14:31;12.50;99.90
37460;DHT22;23318;50.966;5.284;2023-10-31T13:16:58;12.60;99.90
37460;DHT22;23318;50.966;5.284;2023-10-31T13:19:24;12.70;99.90
37460;DHT22;23318;50.966;5.284;2023-10-31T13:21:50;12.60;99.90
37460;DHT22;23318;50.966;5.284;2023-10-31T13:24:16;12.70;99.90
37460;DHT22;23318;50.966;5.284;2023-10-31T13:26:42;12.70;99.90
37460;DHT22;23318;50.966;5.284;2023-10-31T13:29:10;12.70;99.90
37460;DHT22;23318;50.966;5.284;2023-10-31T13:31:35;12.60;99.90
37460;DHT22;23318;50.966;5.284;2023-10-31T13:34:01;12.60;99.90
37460;DHT22;23318;50.966;5.284;2023-10-31T13:36:27;12.40;99.90
37460;DHT22;23318;50.966;5.284;2023-10-31T13:38:52;12.20;99.90
37460;DHT22;23318;50.966;5.284;2023-10-31T13:41:18;11.90;99.90
37460;DHT22;23318;50.966;5.284;2023-10-31T13:43:44;11.80;99.90
37460;DHT22;23318;50.966;5.284;2023-10-31T13:46:09;11.70;99.90
37460;DHT22;23318;50.966;5.284;2023-10-31T13:48:35;11.70;99.90
37460;DHT22;23318;50.966;5.284;2023-10-31T13:51:01;11.80;99.90
37460;DHT22;23318;50.966;5.284;2023-10-31T13:53:27;11.70;99.90
37460;DHT22;23318;50.966;5.284;2023-10-31T13:55:52;11.70;99.90
37460;DHT22;23318;50.966;5.284;2023-10-31T13:58:18;11.60;99.90
37460;DHT22;23318;50.966;5.284;2023-10-31T14:00:45;11.60;99.90
37460;DHT22;23318;50.966;5.284;2023-10-31T14:03:11;11.50;99.90
37460;DHT22;23318;50.966;5.284;2023-10-31T14:05:36;11.60;99.90
37460;DHT22;23318;50.966;5.284;2023-10-31T14:08:02;11.60;99.90
37460;DHT22;23318;50.966;5.284;2023-10-31T14:10:28;11.60;99.90
37460;DHT22;23318;50.966;5.284;2023-10-31T14:12:56;11.50;99.90
37460;DHT22;23318;50.966;5.284;2023-10-31T14:15:22;11.40;99.90
37460;DHT22;23318;50.966;5.284;2023-10-31T14:17:48;11.40;99.90
37460;DHT22;23318;50.966;5.284;2023-10-31T14:20:15;11.40;99.90
37460;DHT22;23318;50.966;5.284;2023-10-31T14:22:40;11.40;99.90
37460;DHT22;23318;50.966;5.284;2023-10-31T14:25:06;11.40;99.90
37460;DHT22;23318;50.966;5.284;2023-10-31T14:27:33;11.30;99.90
37460;DHT22;23318;50.966;5.284;2023-10-31T14:29:59;11.20;99.90
37460;DHT22;23318;50.966;5.284;2023-10-31T14:32:24;11.30;99.90
37460;DHT22;23318;50.966;5.284;2023-10-31T14:34:50;11.30;99.90
37460;DHT22;23318;50.966;5.284;2023-10-31T14:37:16;11.30;99.90
37460;DHT22;23318;50.966;5.284;2023-10-31T14:39:42;11.30;99.90
37460;DHT22;23318;50.966;5.284;2023-10-31T14:42:08;11.20;99.90
37460;DHT22;23318;50.966;5.284;2023-10-31T14:44:34;11.20;99.90
37460;DHT22;23318;50.966;5.284;2023-10-31T14:46:59;11.20;99.90
37460;DHT22;23318;50.966;5.284;2023-10-31T14:49:25;11.30;99.90
37460;DHT22;23318;50.966;5.284;2023-10-31T14:51:51;11.20;99.90
37460;DHT22;23318;50.966;5.284;2023-10-31T14:54:17;11.30;99.90
37460;DHT22;23318;50.966;5.284;2023-10-31T14:56:42;11.30;99.90
37460;DHT22;23318;50.966;5.284;2023-10-31T14:59:08;11.40;99.90
37460;DHT22;23318;50.966;5.284;2023-10-31T15:01:34;11.60;99.90
37460;DHT22;23318;50.966;5.284;2023-10-31T15:03:59;11.70;99.90
37460;DHT22;23318;50.966;5.284;2023-10-31T15:06:25;11.60;99.90
37460;DHT22;23318;50.966;5.284;2023-10-31T15:08:51;11.70;99.90
37460;DHT22;23318;50.966;5.284;2023-10-31T15:11:16;11.70;99.90
37460;DHT22;23318;50.966;5.284;2023-10-31T15:13:42;11.70;99.90
37460;DHT22;23318;50.966;5.284;2023-10-31T15:16:08;11.60;99.90
37460;DHT22;23318;50.966;5.284;2023-10-31T15:18:34;11.70;99.90
37460;DHT22;23318;50.966;5.284;2023-10-31T15:21:01;11.60;99.90
37460;DHT22;23318;50.966;5.284;2023-10-31T15:23:27;11.60;99.90
37460;DHT22;23318;50.966;5.284;2023-10-31T15:25:55;11.50;99.90
37460;DHT22;23318;50.966;5.284;2023-10-31T15:28:22;11.50;99.90
37460;DHT22;23318;50.966;5.284;2023-10-31T15:30:48;11.60;99.90